createdAt,value
2023-03-28T00:00:54.666Z,14.90
2023-03-28T00:01:54.603Z,12.40
2023-03-28T00:02:54.650Z,9.60
2023-03-28T00:03:54.682Z,7.70
2023-03-28T00:04:54.566Z,12.60
2023-03-28T00:05:54.622Z,17.70
2023-03-28T00:06:54.536Z,8.50
2023-03-28T00:07:54.531Z,10.30
2023-03-28T00:08:54.514Z,10.10
2023-03-28T00:09:54.519Z,12.30
2023-03-28T00:10:54.557Z,10.80
2023-03-28T00:11:54.501Z,11.70
2023-03-28T00:12:54.492Z,12.40
2023-03-28T00:13:54.468Z,13.30
2023-03-28T00:14:54.556Z,15.90
2023-03-28T00:15:54.544Z,12.30
2023-03-28T00:16:54.447Z,9.90
2023-03-28T00:17:54.443Z,8.90
2023-03-28T00:18:54.407Z,10.10
2023-03-28T00:19:54.433Z,13.00
2023-03-28T00:20:54.427Z,15.40
2023-03-28T00:21:54.380Z,11.00
2023-03-28T00:22:54.384Z,7.90
2023-03-28T00:23:54.384Z,13.30
2023-03-28T00:24:54.415Z,9.90
2023-03-28T00:25:54.358Z,10.40
2023-03-28T00:26:54.741Z,15.00
2023-03-28T00:27:54.333Z,10.80
2023-03-28T00:28:54.338Z,11.50
2023-03-28T00:29:54.348Z,10.60
2023-03-28T00:30:54.369Z,10.50
2023-03-28T00:31:54.288Z,14.30
2023-03-28T00:32:54.318Z,9.90
2023-03-28T00:33:54.370Z,11.50
2023-03-28T00:34:54.255Z,14.60
2023-03-28T00:35:54.301Z,15.10
2023-03-28T00:36:54.238Z,9.20
2023-03-28T00:37:54.237Z,12.40
2023-03-28T00:38:54.211Z,15.10
2023-03-28T00:39:54.236Z,11.50
2023-03-28T00:40:54.227Z,8.70
2023-03-28T00:41:54.178Z,9.40
2023-03-28T00:42:54.166Z,11.40
2023-03-28T00:43:54.254Z,11.60
2023-03-28T00:44:54.163Z,13.20
2023-03-28T00:46:08.226Z,14.40
2023-03-28T00:46:55.175Z,11.50
2023-03-28T00:47:54.170Z,12.60
2023-03-28T00:48:54.139Z,12.30
2023-03-28T00:49:54.246Z,11.70
2023-03-28T00:50:54.116Z,10.80
2023-03-28T00:51:54.157Z,13.90
2023-03-28T00:52:54.068Z,12.30
2023-03-28T00:53:54.118Z,11.90
2023-03-28T00:54:54.090Z,13.40
2023-03-28T00:55:54.087Z,10.60
2023-03-28T00:56:54.056Z,16.50
2023-03-28T00:57:54.058Z,9.10
2023-03-28T00:58:54.015Z,9.50
2023-03-28T00:59:53.992Z,13.80
2023-03-28T01:00:54.036Z,8.50
2023-03-28T01:01:54.100Z,10.70
2023-03-28T01:02:54.018Z,13.40
2023-03-28T01:03:53.948Z,14.20
2023-03-28T01:04:53.938Z,11.30
2023-03-28T01:05:53.950Z,14.80
2023-03-28T01:06:53.919Z,11.90
2023-03-28T01:07:53.907Z,11.30
2023-03-28T01:08:53.896Z,7.30
2023-03-28T01:09:53.885Z,10.00
2023-03-28T01:10:53.894Z,13.70
2023-03-28T01:11:53.866Z,13.60
2023-03-28T01:12:53.869Z,13.10
2023-03-28T01:13:53.834Z,11.00
2023-03-28T01:14:53.834Z,12.10
2023-03-28T01:15:53.880Z,12.30
2023-03-28T01:16:53.813Z,10.70
2023-03-28T01:17:53.805Z,11.80
2023-03-28T01:18:53.829Z,11.60
2023-03-28T01:19:53.769Z,12.20
2023-03-28T01:20:53.779Z,10.20
2023-03-28T01:21:53.758Z,14.10
2023-03-28T01:22:56.485Z,12.50
2023-03-28T01:23:53.735Z,12.40
2023-03-28T01:24:54.756Z,10.30
2023-03-28T01:25:53.727Z,11.70
2023-03-28T01:26:53.728Z,11.50
2023-03-28T01:27:53.712Z,15.40
2023-03-28T01:28:53.706Z,13.50
2023-03-28T01:29:53.674Z,18.70
2023-03-28T01:30:53.701Z,11.20
2023-03-28T01:31:53.675Z,10.10
2023-03-28T01:32:53.654Z,15.00
2023-03-28T01:33:53.621Z,14.90
2023-03-28T01:34:53.629Z,13.50
2023-03-28T01:35:53.664Z,13.20
2023-03-28T01:36:53.678Z,14.00
2023-03-28T01:37:53.613Z,11.20
2023-03-28T01:38:53.572Z,14.30
2023-03-28T01:39:53.569Z,9.90
2023-03-28T01:40:53.616Z,12.20
2023-03-28T01:41:53.538Z,10.50
2023-03-28T01:42:53.545Z,13.70
2023-03-28T01:43:53.518Z,10.70
2023-03-28T01:44:53.541Z,11.30
2023-03-28T01:45:53.559Z,14.10
2023-03-28T01:46:53.496Z,11.90
2023-03-28T01:47:53.520Z,12.40
2023-03-28T01:48:53.461Z,15.30
2023-03-28T01:49:53.489Z,12.90
2023-03-28T01:50:53.466Z,12.10
2023-03-28T01:51:53.440Z,10.90
2023-03-28T01:52:53.451Z,11.00
2023-03-28T01:53:53.442Z,10.60
2023-03-28T01:54:53.416Z,15.20
2023-03-28T01:55:53.404Z,12.60
2023-03-28T01:56:53.525Z,11.20
2023-03-28T01:57:53.374Z,11.90
2023-03-28T01:58:53.401Z,14.10
2023-03-28T01:59:53.357Z,10.60
2023-03-28T02:00:53.407Z,19.30
2023-03-28T02:01:53.352Z,12.20
2023-03-28T02:02:53.434Z,12.40
2023-03-28T02:03:53.333Z,13.70
2023-03-28T02:04:53.335Z,13.00
2023-03-28T02:05:53.288Z,14.20
2023-03-28T02:06:53.278Z,11.90
2023-03-28T02:07:53.303Z,12.80
2023-03-28T02:08:53.264Z,13.00
2023-03-28T02:09:53.265Z,11.90
2023-03-28T02:10:53.268Z,13.10
2023-03-28T02:11:53.330Z,14.50
2023-03-28T02:12:53.260Z,9.00
2023-03-28T02:13:53.254Z,14.40
2023-03-28T02:14:53.232Z,11.10
2023-03-28T02:15:53.268Z,11.20
2023-03-28T02:16:53.234Z,10.40
2023-03-28T02:17:53.364Z,15.70
2023-03-28T02:18:53.223Z,14.00
2023-03-28T02:19:53.169Z,13.40
2023-03-28T02:20:53.182Z,14.00
2023-03-28T02:21:53.133Z,11.50
2023-03-28T02:22:53.131Z,8.90
2023-03-28T02:23:53.139Z,12.00
2023-03-28T02:24:53.163Z,11.80
2023-03-28T02:25:53.118Z,8.10
2023-03-28T02:26:53.083Z,12.00
2023-03-28T02:27:53.096Z,11.80
2023-03-28T02:28:53.075Z,13.40
2023-03-28T02:29:53.167Z,12.90
2023-03-28T02:30:53.093Z,14.70
2023-03-28T02:31:53.114Z,13.80
2023-03-28T02:32:53.065Z,9.40
2023-03-28T02:33:53.026Z,10.90
2023-03-28T02:34:53.026Z,12.60
2023-03-28T02:35:53.076Z,10.60
2023-03-28T02:36:52.986Z,9.60
2023-03-28T02:37:53.021Z,10.80
2023-03-28T02:38:52.980Z,11.40
2023-03-28T02:39:52.965Z,10.30
2023-03-28T02:40:53.047Z,9.50
2023-03-28T02:41:52.935Z,9.60
2023-03-28T02:42:52.982Z,11.10
2023-03-28T02:43:52.909Z,12.50
2023-03-28T02:44:52.903Z,10.90
2023-03-28T02:45:53.045Z,10.10
2023-03-28T02:46:52.874Z,10.70
2023-03-28T02:47:52.968Z,6.30
2023-03-28T02:48:52.856Z,9.00
2023-03-28T02:49:52.861Z,10.30
2023-03-28T02:50:52.872Z,11.40
2023-03-28T02:51:52.826Z,13.60
2023-03-28T02:52:52.829Z,8.20
2023-03-28T02:53:52.807Z,13.00
2023-03-28T02:54:52.790Z,12.00
2023-03-28T02:55:52.871Z,15.50
2023-03-28T02:56:52.899Z,13.10
2023-03-28T02:57:52.768Z,13.30
2023-03-28T02:58:52.756Z,11.80
2023-03-28T02:59:52.754Z,11.30
2023-03-28T03:00:52.743Z,12.10
2023-03-28T03:01:52.907Z,13.30
2023-03-28T03:02:52.765Z,13.10
2023-03-28T03:03:52.985Z,13.80
2023-03-28T03:04:52.704Z,11.80
2023-03-28T03:05:52.717Z,11.10
2023-03-28T03:06:52.688Z,12.80
2023-03-28T03:07:52.706Z,11.60
2023-03-28T03:08:52.669Z,14.90
2023-03-28T03:09:52.650Z,8.50
2023-03-28T03:10:52.680Z,11.10
2023-03-28T03:11:52.624Z,14.60
2023-03-28T03:12:52.600Z,12.80
2023-03-28T03:13:52.618Z,12.60
2023-03-28T03:14:52.601Z,11.20
2023-03-28T03:15:52.649Z,12.50
2023-03-28T03:16:52.636Z,13.90
2023-03-28T03:17:52.630Z,11.80
2023-03-28T03:18:52.590Z,11.00
2023-03-28T03:19:52.556Z,12.90
2023-03-28T03:20:52.558Z,12.30
2023-03-28T03:21:52.565Z,11.00
2023-03-28T03:22:52.503Z,9.80
2023-03-28T03:23:52.508Z,8.60
2023-03-28T03:24:52.478Z,13.30
2023-03-28T03:25:52.533Z,14.10
2023-03-28T03:26:52.630Z,12.90
2023-03-28T03:27:52.465Z,11.50
2023-03-28T03:28:52.436Z,12.10
2023-03-28T03:29:52.472Z,12.40
2023-03-28T03:30:52.438Z,10.40
2023-03-28T03:31:52.519Z,11.70
2023-03-28T03:32:52.417Z,16.70
2023-03-28T03:33:52.385Z,11.90
2023-03-28T03:34:52.392Z,11.60
2023-03-28T03:35:52.441Z,10.30
2023-03-28T03:36:52.425Z,9.80
2023-03-28T03:37:52.359Z,10.50
2023-03-28T03:38:52.361Z,10.90
2023-03-28T03:39:52.334Z,10.60
2023-03-28T03:40:52.373Z,12.60
2023-03-28T03:41:52.323Z,13.40
2023-03-28T03:42:52.291Z,9.30
2023-03-28T03:43:52.326Z,6.80
2023-03-28T03:44:52.294Z,11.40
2023-03-28T03:45:52.515Z,8.70
2023-03-28T03:46:52.277Z,11.60
2023-03-28T03:47:52.299Z,8.20
2023-03-28T03:48:52.227Z,12.60
2023-03-28T03:49:52.259Z,11.80
2023-03-28T03:50:52.277Z,11.10
2023-03-28T03:51:52.232Z,12.20
2023-03-28T03:52:52.187Z,9.20
2023-03-28T03:53:52.179Z,8.00
2023-03-28T03:54:52.223Z,9.00
2023-03-28T03:55:52.207Z,12.50
2023-03-28T03:56:52.178Z,13.80
2023-03-28T03:57:52.181Z,13.70
2023-03-28T03:58:52.314Z,9.90
2023-03-28T03:59:52.142Z,14.10
2023-03-28T04:00:52.117Z,15.90
2023-03-28T04:01:52.155Z,9.50
2023-03-28T04:02:52.123Z,12.30
2023-03-28T04:03:52.188Z,12.50
2023-03-28T04:04:52.124Z,13.40
2023-03-28T04:05:52.082Z,13.70
2023-03-28T04:06:52.044Z,12.10
2023-03-28T04:07:52.061Z,10.30
2023-03-28T04:08:52.023Z,13.50
2023-03-28T04:09:52.175Z,10.60
2023-03-28T04:10:52.058Z,10.10
2023-03-28T04:11:52.286Z,11.20
2023-03-28T04:12:52.021Z,11.70
2023-03-28T04:13:52.018Z,10.30
2023-03-28T04:14:52.292Z,13.60
2023-03-28T04:15:52.023Z,9.50
2023-03-28T04:16:51.948Z,12.60
2023-03-28T04:17:52.031Z,10.00
2023-03-28T04:18:51.966Z,11.20
2023-03-28T04:19:52.131Z,15.00
2023-03-28T04:20:52.002Z,14.20
2023-03-28T04:21:51.913Z,8.80
2023-03-28T04:22:52.003Z,11.10
2023-03-28T04:23:51.860Z,10.30
2023-03-28T04:24:51.853Z,8.60
2023-03-28T04:25:51.910Z,11.80
2023-03-28T04:26:51.860Z,11.20
2023-03-28T04:27:51.950Z,10.20
2023-03-28T04:28:51.967Z,10.50
2023-03-28T04:29:51.898Z,9.30
2023-03-28T04:30:51.959Z,13.20
2023-03-28T04:31:51.903Z,14.20
2023-03-28T04:32:51.953Z,8.10
2023-03-28T04:33:51.859Z,9.20
2023-03-28T04:34:51.802Z,12.40
2023-03-28T04:35:51.805Z,11.70
2023-03-28T04:36:51.741Z,9.70
2023-03-28T04:37:51.834Z,11.00
2023-03-28T04:38:51.745Z,13.00
2023-03-28T04:39:51.718Z,11.90
2023-03-28T04:40:51.911Z,10.90
2023-03-28T04:41:51.815Z,12.90
2023-03-28T04:42:51.660Z,9.90
2023-03-28T04:43:51.676Z,11.70
2023-03-28T04:44:51.684Z,9.80
2023-03-28T04:45:51.697Z,12.60
2023-03-28T04:46:51.689Z,10.90
2023-03-28T04:47:51.680Z,13.80
2023-03-28T04:48:56.484Z,12.40
2023-03-28T04:49:52.644Z,12.90
2023-03-28T04:50:51.661Z,13.00
2023-03-28T04:51:51.664Z,14.70
2023-03-28T04:52:51.562Z,11.40
2023-03-28T04:53:51.583Z,11.30
2023-03-28T04:54:51.543Z,14.80
2023-03-28T04:55:51.581Z,15.30
2023-03-28T04:56:51.647Z,13.20
2023-03-28T04:57:51.602Z,18.40
2023-03-28T04:58:51.502Z,13.10
2023-03-28T04:59:51.515Z,11.40
2023-03-28T05:00:51.520Z,13.20
2023-03-28T05:01:51.598Z,11.30
2023-03-28T05:02:51.527Z,14.90
2023-03-28T05:03:51.481Z,13.90
2023-03-28T05:04:51.573Z,16.60
2023-03-28T05:05:51.538Z,11.00
2023-03-28T05:06:51.434Z,14.80
2023-03-28T05:07:51.399Z,14.70
2023-03-28T05:08:51.450Z,14.60
2023-03-28T05:09:51.408Z,13.90
2023-03-28T05:10:51.435Z,13.80
2023-03-28T05:11:51.383Z,12.10
2023-03-28T05:12:51.353Z,13.10
2023-03-28T05:13:51.340Z,12.50
2023-03-28T05:14:51.367Z,11.30
2023-03-28T05:15:51.357Z,9.80
2023-03-28T05:16:51.388Z,11.00
2023-03-28T05:17:51.357Z,12.50
2023-03-28T05:18:51.298Z,11.30
2023-03-28T05:19:51.297Z,15.30
2023-03-28T05:20:51.293Z,16.10
2023-03-28T05:21:51.261Z,13.70
2023-03-28T05:22:51.282Z,21.80
2023-03-28T05:23:52.493Z,13.90
2023-03-28T05:24:51.222Z,14.70
2023-03-28T05:25:51.271Z,12.50
2023-03-28T05:26:51.340Z,16.40
2023-03-28T05:27:51.198Z,16.60
2023-03-28T05:28:51.191Z,11.10
2023-03-28T05:29:51.185Z,9.50
2023-03-28T05:30:51.169Z,14.00
2023-03-28T05:31:51.198Z,12.70
2023-03-28T05:32:51.267Z,12.10
2023-03-28T05:33:51.167Z,13.40
2023-03-28T05:34:51.134Z,14.30
2023-03-28T05:35:51.147Z,13.00
2023-03-28T05:36:51.116Z,14.50
2023-03-28T05:37:51.135Z,17.90
2023-03-28T05:38:51.145Z,15.60
2023-03-28T05:39:51.082Z,11.00
2023-03-28T05:40:51.082Z,20.70
2023-03-28T05:41:51.085Z,18.90
2023-03-28T05:42:51.069Z,26.20
2023-03-28T05:43:51.037Z,19.80
2023-03-28T05:44:51.046Z,16.80
2023-03-28T05:45:51.105Z,16.80
2023-03-28T05:46:50.998Z,17.70
2023-03-28T05:47:51.056Z,22.30
2023-03-28T05:48:50.993Z,24.50
2023-03-28T05:49:52.522Z,27.40
2023-03-28T05:50:51.019Z,25.20
2023-03-28T05:51:50.977Z,21.80
2023-03-28T05:52:50.955Z,19.90
2023-03-28T05:53:50.958Z,20.60
2023-03-28T05:54:51.891Z,18.00
2023-03-28T05:55:51.213Z,20.70
2023-03-28T05:56:50.946Z,17.20
2023-03-28T05:57:50.908Z,18.20
2023-03-28T05:58:50.996Z,16.60
2023-03-28T05:59:50.880Z,17.80
2023-03-28T06:00:50.866Z,20.10
2023-03-28T06:01:50.844Z,12.90
2023-03-28T06:02:50.843Z,16.70
2023-03-28T06:03:50.827Z,11.70
2023-03-28T06:04:50.851Z,15.10
2023-03-28T06:05:50.827Z,12.60
2023-03-28T06:06:50.855Z,14.80
2023-03-28T06:07:50.846Z,17.70
2023-03-28T06:08:50.792Z,13.90
2023-03-28T06:09:50.768Z,14.50
2023-03-28T06:10:51.322Z,14.30
2023-03-28T06:11:50.753Z,14.00
2023-03-28T06:12:50.886Z,15.10
2023-03-28T06:13:50.728Z,14.30
2023-03-28T06:14:50.710Z,10.70
2023-03-28T06:15:50.729Z,13.60
2023-03-28T06:16:50.729Z,16.50
2023-03-28T06:17:50.763Z,14.50
2023-03-28T06:18:50.713Z,13.20
2023-03-28T06:19:50.866Z,14.30
2023-03-28T06:20:50.678Z,12.20
2023-03-28T06:21:50.738Z,16.50
2023-03-28T06:22:50.662Z,13.70
2023-03-28T06:23:50.609Z,13.40
2023-03-28T06:24:50.635Z,10.20
2023-03-28T06:25:50.660Z,16.40
2023-03-28T06:26:50.608Z,13.40
2023-03-28T06:27:50.560Z,16.70
2023-03-28T06:28:50.564Z,17.40
2023-03-28T06:29:50.572Z,13.90
2023-03-28T06:30:50.547Z,15.30
2023-03-28T06:31:50.570Z,15.40
2023-03-28T06:32:50.640Z,16.20
2023-03-28T06:33:50.513Z,12.90
2023-03-28T06:34:50.493Z,13.70
2023-03-28T06:35:50.566Z,13.70
2023-03-28T06:36:50.471Z,16.60
2023-03-28T06:37:50.467Z,15.50
2023-03-28T06:38:50.603Z,13.20
2023-03-28T06:39:50.445Z,15.10
2023-03-28T06:40:50.467Z,23.50
2023-03-28T06:41:50.433Z,17.40
2023-03-28T06:42:50.405Z,18.00
2023-03-28T06:43:50.404Z,13.30
2023-03-28T06:44:50.397Z,12.50
2023-03-28T06:45:50.477Z,14.90
2023-03-28T06:46:50.465Z,17.90
2023-03-28T06:47:50.414Z,13.10
2023-03-28T06:48:50.358Z,11.00
2023-03-28T06:49:50.372Z,12.40
2023-03-28T06:50:50.441Z,14.20
2023-03-28T06:51:50.315Z,13.40
2023-03-28T06:52:50.308Z,12.60
2023-03-28T06:53:50.331Z,15.70
2023-03-28T06:54:50.281Z,13.80
2023-03-28T06:55:50.296Z,13.70
2023-03-28T06:56:50.294Z,13.90
2023-03-28T06:57:50.263Z,9.30
2023-03-28T06:58:50.245Z,10.20
2023-03-28T06:59:50.352Z,13.40
2023-03-28T07:00:50.282Z,12.60
2023-03-28T07:01:50.288Z,14.70
2023-03-28T07:02:50.366Z,13.00
2023-03-28T07:03:52.434Z,13.10
2023-03-28T07:04:50.189Z,13.00
2023-03-28T07:05:50.194Z,12.50
2023-03-28T07:06:50.160Z,10.40
2023-03-28T07:07:50.190Z,14.20
2023-03-28T07:08:50.145Z,9.00
2023-03-28T07:09:50.191Z,16.10
2023-03-28T07:10:50.129Z,13.50
2023-03-28T07:11:50.107Z,17.40
2023-03-28T07:12:50.107Z,10.20
2023-03-28T07:13:50.137Z,13.40
2023-03-28T07:14:50.071Z,14.50
2023-03-28T07:15:50.091Z,12.50
2023-03-28T07:16:50.095Z,12.00
2023-03-28T07:17:50.160Z,13.30
2023-03-28T07:18:50.030Z,10.80
2023-03-28T07:19:50.026Z,9.00
2023-03-28T07:21:01.564Z,12.70
2023-03-28T07:21:51.061Z,12.40
2023-03-28T07:22:49.987Z,12.40
2023-03-28T07:23:49.981Z,11.50
2023-03-28T07:24:49.978Z,13.70
2023-03-28T07:25:49.980Z,12.10
2023-03-28T07:26:49.950Z,10.60
2023-03-28T07:27:49.935Z,14.30
2023-03-28T07:28:49.927Z,11.60
2023-03-28T07:29:49.917Z,16.40
2023-03-28T07:30:49.905Z,13.60
2023-03-28T07:31:49.945Z,10.60
2023-03-28T07:32:55.674Z,9.30
2023-03-28T07:33:50.887Z,14.90
2023-03-28T07:34:49.860Z,13.30
2023-03-28T07:35:49.871Z,13.10
2023-03-28T07:36:49.868Z,13.10
2023-03-28T07:37:49.842Z,12.60
2023-03-28T07:38:49.845Z,8.90
2023-03-28T07:39:49.802Z,12.00
2023-03-28T07:40:49.801Z,11.40
2023-03-28T07:41:49.785Z,11.90
2023-03-28T07:42:49.777Z,11.30
2023-03-28T07:43:49.765Z,8.80
2023-03-28T07:44:49.757Z,11.60
2023-03-28T07:45:49.785Z,9.30
2023-03-28T07:46:49.774Z,14.40
2023-03-28T07:47:49.732Z,12.10
2023-03-28T07:48:49.702Z,9.50
2023-03-28T07:49:49.715Z,10.10
2023-03-28T07:50:49.693Z,9.90
2023-03-28T07:51:49.760Z,9.10
2023-03-28T07:52:49.667Z,10.60
2023-03-28T07:53:49.793Z,11.20
2023-03-28T07:54:49.641Z,10.40
2023-03-28T07:55:55.306Z,13.00
2023-03-28T07:56:50.687Z,14.60
2023-03-28T07:57:49.620Z,8.50
2023-03-28T07:58:49.596Z,12.30
2023-03-28T07:59:49.596Z,10.20
2023-03-28T08:00:49.593Z,12.00
2023-03-28T08:01:49.669Z,9.80
2023-03-28T08:02:49.734Z,12.30
2023-03-28T08:03:49.706Z,13.80
2023-03-28T08:04:49.524Z,9.40
2023-03-28T08:05:49.782Z,11.50
2023-03-28T08:06:49.522Z,11.80
2023-03-28T08:07:49.499Z,9.30
2023-03-28T08:08:49.556Z,6.80
2023-03-28T08:09:49.480Z,6.90
2023-03-28T08:10:49.528Z,10.20
2023-03-28T08:11:49.480Z,8.00
2023-03-28T08:12:49.452Z,10.70
2023-03-28T08:13:49.450Z,8.40
2023-03-28T08:14:49.430Z,10.50
2023-03-28T08:15:49.521Z,7.20
2023-03-28T08:16:49.494Z,11.30
2023-03-28T08:17:49.418Z,12.10
2023-03-28T08:18:57.007Z,11.70
2023-03-28T08:19:50.387Z,8.80
2023-03-28T08:20:49.366Z,10.80
2023-03-28T08:21:49.433Z,9.80
2023-03-28T08:22:49.343Z,10.90
2023-03-28T08:23:49.352Z,12.00
2023-03-28T08:24:49.322Z,6.70
2023-03-28T08:25:49.311Z,12.50
2023-03-28T08:26:49.327Z,7.10
2023-03-28T08:27:49.318Z,9.20
2023-03-28T08:28:49.374Z,7.10
2023-03-28T08:29:49.265Z,8.90
2023-03-28T08:30:49.316Z,10.70
2023-03-28T08:31:49.391Z,10.80
2023-03-28T08:32:49.268Z,12.80
2023-03-28T08:33:49.213Z,9.20
2023-03-28T08:34:49.225Z,9.30
2023-03-28T08:35:49.223Z,11.10
2023-03-28T08:36:49.197Z,7.00
2023-03-28T08:37:49.176Z,7.60
2023-03-28T08:38:49.179Z,6.50
2023-03-28T08:39:49.166Z,9.60
2023-03-28T08:40:49.199Z,8.70
2023-03-28T08:41:49.188Z,6.70
2023-03-28T08:42:49.129Z,7.00
2023-03-28T08:43:49.143Z,9.60
2023-03-28T08:44:49.126Z,11.10
2023-03-28T08:45:49.117Z,9.40
2023-03-28T08:46:49.154Z,9.40
2023-03-28T08:47:49.065Z,9.80
2023-03-28T08:48:49.077Z,8.20
2023-03-28T08:49:49.057Z,7.00
2023-03-28T08:50:49.038Z,9.50
2023-03-28T08:51:49.041Z,10.30
2023-03-28T08:52:49.021Z,6.80
2023-03-28T08:53:49.012Z,7.10
2023-03-28T08:54:49.012Z,7.70
2023-03-28T08:55:50.149Z,10.50
2023-03-28T08:56:49.051Z,8.00
2023-03-28T08:57:48.955Z,6.80
2023-03-28T08:58:48.959Z,15.00
2023-03-28T08:59:48.956Z,6.30
2023-03-28T09:00:48.932Z,10.20
2023-03-28T09:01:49.000Z,7.80
2023-03-28T09:02:51.387Z,7.50
2023-03-28T09:03:48.967Z,8.60
2023-03-28T09:04:48.887Z,6.60
2023-03-28T09:05:48.882Z,7.90
2023-03-28T09:06:48.904Z,11.30
2023-03-28T09:07:48.893Z,6.60
2023-03-28T09:08:48.843Z,8.20
2023-03-28T09:09:48.830Z,7.20
2023-03-28T09:10:48.824Z,10.40
2023-03-28T09:11:48.872Z,7.40
2023-03-28T09:12:48.933Z,8.00
2023-03-28T09:13:48.794Z,6.80
2023-03-28T09:14:50.716Z,4.70
2023-03-28T09:15:48.757Z,7.30
2023-03-28T09:16:48.853Z,7.50
2023-03-28T09:17:48.790Z,8.70
2023-03-28T09:18:48.735Z,8.50
2023-03-28T09:19:49.245Z,7.20
2023-03-28T09:20:48.720Z,7.00
2023-03-28T09:21:48.719Z,11.60
2023-03-28T09:22:48.694Z,9.60
2023-03-28T09:23:48.673Z,8.90
2023-03-28T09:24:48.661Z,8.00
2023-03-28T09:25:48.670Z,8.40
2023-03-28T09:26:48.666Z,10.40
2023-03-28T09:27:48.636Z,9.10
2023-03-28T09:28:48.641Z,7.60
2023-03-28T09:29:48.688Z,8.50
2023-03-28T09:30:48.601Z,5.50
2023-03-28T09:31:48.721Z,8.40
2023-03-28T09:32:48.668Z,7.10
2023-03-28T09:33:48.581Z,6.00
2023-03-28T09:34:48.583Z,6.80
2023-03-28T09:35:48.565Z,3.30
2023-03-28T09:36:50.274Z,5.30
2023-03-28T09:37:48.526Z,4.30
2023-03-28T09:38:48.720Z,4.30
2023-03-28T09:39:48.544Z,4.20
2023-03-28T09:40:48.488Z,4.70
2023-03-28T09:41:48.518Z,4.80
2023-03-28T09:42:48.464Z,5.50
2023-03-28T09:43:48.456Z,4.40
2023-03-28T09:44:54.802Z,5.40
2023-03-28T09:45:49.494Z,5.60
2023-03-28T09:46:48.441Z,6.60
2023-03-28T09:47:48.723Z,3.80
2023-03-28T09:48:48.513Z,7.20
2023-03-28T09:49:50.735Z,6.20
2023-03-28T09:50:49.374Z,6.80
2023-03-28T09:51:48.384Z,5.00
2023-03-28T09:52:48.354Z,5.90
2023-03-28T09:53:48.348Z,4.80
2023-03-28T09:54:48.363Z,5.10
2023-03-28T09:55:57.978Z,6.10
2023-03-28T09:56:49.407Z,8.70
2023-03-28T09:57:48.386Z,4.70
2023-03-28T09:58:48.314Z,6.10
2023-03-28T09:59:48.453Z,3.80
2023-03-28T10:00:48.275Z,5.10
2023-03-28T10:01:48.330Z,4.50
2023-03-28T10:02:48.288Z,6.70
2023-03-28T10:03:48.247Z,6.10
2023-03-28T10:04:48.340Z,6.10
2023-03-28T10:05:48.233Z,6.70
2023-03-28T10:06:48.324Z,3.70
2023-03-28T10:07:48.202Z,6.70
2023-03-28T10:08:48.239Z,6.50
2023-03-28T10:09:48.188Z,8.20
2023-03-28T10:10:48.381Z,8.60
2023-03-28T10:11:48.213Z,5.60
2023-03-28T10:12:48.190Z,4.70
2023-03-28T10:13:48.151Z,5.70
2023-03-28T10:14:48.195Z,5.70
2023-03-28T10:15:48.248Z,7.90
2023-03-28T10:16:48.214Z,7.00
2023-03-28T10:17:49.059Z,5.10
2023-03-28T10:18:48.079Z,7.90
2023-03-28T10:19:48.131Z,4.70
2023-03-28T10:20:48.058Z,6.50
2023-03-28T10:21:48.055Z,4.70
2023-03-28T10:22:48.069Z,4.20
2023-03-28T10:23:48.033Z,5.20
2023-03-28T10:24:48.025Z,4.30
2023-03-28T10:25:48.018Z,5.80
2023-03-28T10:26:48.014Z,5.00
2023-03-28T10:27:48.006Z,6.50
2023-03-28T10:28:47.993Z,5.80
2023-03-28T10:29:47.981Z,4.10
2023-03-28T10:30:47.965Z,2.80
2023-03-28T10:31:47.959Z,4.90
2023-03-28T10:32:47.978Z,4.50
2023-03-28T10:33:47.964Z,6.30
2023-03-28T10:34:47.921Z,4.40
2023-03-28T10:35:47.950Z,3.90
2023-03-28T10:36:47.889Z,3.10
2023-03-28T10:37:47.872Z,6.10
2023-03-28T10:38:47.974Z,3.40
2023-03-28T10:39:47.927Z,3.30
2023-03-28T10:40:47.873Z,4.20
2023-03-28T10:41:47.828Z,3.60
2023-03-28T10:42:47.818Z,4.40
2023-03-28T10:43:47.914Z,3.60
2023-03-28T10:44:47.882Z,5.30
2023-03-28T10:45:47.847Z,3.20
2023-03-28T10:46:47.811Z,3.60
2023-03-28T10:47:47.815Z,4.20
2023-03-28T10:48:47.743Z,3.40
2023-03-28T10:49:47.980Z,3.00
2023-03-28T10:50:47.790Z,4.50
2023-03-28T10:51:47.726Z,5.10
2023-03-28T10:52:47.740Z,2.70
2023-03-28T10:53:47.730Z,6.00
2023-03-28T10:54:47.681Z,5.40
2023-03-28T10:55:47.679Z,4.60
2023-03-28T10:56:47.730Z,5.80
2023-03-28T10:57:47.776Z,4.20
2023-03-28T10:58:47.659Z,3.80
2023-03-28T10:59:47.653Z,5.10
2023-03-28T11:00:47.612Z,4.20
2023-03-28T11:01:47.640Z,2.40
2023-03-28T11:02:47.693Z,5.70
2023-03-28T11:03:47.737Z,4.40
2023-03-28T11:04:47.589Z,6.20
2023-03-28T11:05:55.016Z,4.50
2023-03-28T11:06:48.804Z,5.60
2023-03-28T11:07:47.573Z,5.40
2023-03-28T11:08:47.647Z,3.80
2023-03-28T11:09:47.560Z,3.40
2023-03-28T11:10:47.516Z,4.70
2023-03-28T11:11:47.517Z,4.70
2023-03-28T11:12:55.032Z,3.30
2023-03-28T11:13:48.473Z,2.90
2023-03-28T11:14:47.541Z,3.40
2023-03-28T11:15:47.474Z,5.80
2023-03-28T11:16:47.454Z,3.60
2023-03-28T11:17:47.896Z,5.00
2023-03-28T11:18:47.421Z,3.00
2023-03-28T11:19:47.409Z,6.10
2023-03-28T11:20:47.403Z,2.40
2023-03-28T11:21:47.380Z,3.40
2023-03-28T11:22:58.947Z,4.20
2023-03-28T11:23:48.372Z,3.80
2023-03-28T11:24:47.364Z,5.80
2023-03-28T11:25:47.347Z,5.40
2023-03-28T11:26:47.397Z,5.00
2023-03-28T11:27:47.334Z,3.90
2023-03-28T11:28:47.323Z,5.90
2023-03-28T11:29:47.295Z,5.20
2023-03-28T11:30:47.343Z,4.70
2023-03-28T11:31:47.340Z,5.60
2023-03-28T11:32:47.318Z,3.10
2023-03-28T11:33:47.255Z,5.60
2023-03-28T11:34:47.249Z,4.80
2023-03-28T11:35:47.273Z,4.90
2023-03-28T11:36:47.239Z,5.10
2023-03-28T11:37:47.229Z,5.80
2023-03-28T11:38:47.227Z,3.50
2023-03-28T11:39:47.199Z,3.70
2023-03-28T11:40:47.186Z,3.60
2023-03-28T11:41:47.168Z,4.60
2023-03-28T11:42:47.179Z,6.20
2023-03-28T11:43:47.150Z,5.90
2023-03-28T11:44:47.187Z,3.60
2023-03-28T11:45:51.165Z,4.40
2023-03-28T11:46:48.260Z,4.60
2023-03-28T11:47:47.198Z,9.00
2023-03-28T11:48:47.100Z,6.70
2023-03-28T11:49:47.105Z,3.50
2023-03-28T11:50:47.112Z,4.70
2023-03-28T11:51:47.069Z,5.70
2023-03-28T11:52:47.090Z,3.90
2023-03-28T11:53:47.155Z,6.00
2023-03-28T11:54:47.028Z,5.70
2023-03-28T11:55:47.036Z,4.70
2023-03-28T11:56:47.016Z,4.50
2023-03-28T11:57:47.002Z,5.80
2023-03-28T11:58:46.993Z,4.70
2023-03-28T11:59:47.015Z,5.10
2023-03-28T12:00:46.990Z,5.00
2023-03-28T12:01:46.967Z,5.60
2023-03-28T12:02:47.057Z,2.50
2023-03-28T12:03:47.026Z,5.00
2023-03-28T12:04:46.926Z,4.00
2023-03-28T12:05:46.922Z,3.00
2023-03-28T12:06:59.545Z,9.00
2023-03-28T12:07:47.899Z,6.90
2023-03-28T12:08:46.901Z,3.10
2023-03-28T12:09:46.868Z,6.70
2023-03-28T12:10:46.876Z,3.90
2023-03-28T12:11:46.849Z,3.90
2023-03-28T12:12:46.855Z,4.70
2023-03-28T12:13:51.034Z,2.50
2023-03-28T12:14:47.862Z,4.50
2023-03-28T12:15:47.022Z,4.90
2023-03-28T12:16:46.892Z,2.40
2023-03-28T12:17:47.087Z,5.50
2023-03-28T12:18:46.763Z,4.00
2023-03-28T12:19:46.829Z,4.90
2023-03-28T12:20:46.804Z,7.50
2023-03-28T12:21:46.942Z,4.70
2023-03-28T12:22:46.752Z,6.80
2023-03-28T12:23:46.770Z,6.10
2023-03-28T12:24:46.889Z,4.80
2023-03-28T12:25:46.789Z,4.50
2023-03-28T12:26:46.790Z,6.80
2023-03-28T12:27:46.804Z,4.60
2023-03-28T12:28:46.773Z,4.50
2023-03-28T12:29:46.917Z,6.70
2023-03-28T12:30:46.753Z,3.80
2023-03-28T12:31:46.646Z,3.90
2023-03-28T12:32:46.911Z,4.40
2023-03-28T12:33:46.648Z,8.40
2023-03-28T12:34:46.847Z,3.30
2023-03-28T12:35:46.657Z,2.50
2023-03-28T12:36:46.762Z,5.00
2023-03-28T12:37:46.878Z,2.70
2023-03-28T12:38:46.891Z,3.30
2023-03-28T12:39:46.682Z,4.30
2023-03-28T12:40:46.633Z,3.50
2023-03-28T12:41:46.694Z,4.20
2023-03-28T12:42:46.642Z,6.40
2023-03-28T12:43:46.716Z,4.60
2023-03-28T12:44:46.508Z,5.80
2023-03-28T12:45:46.600Z,3.90
2023-03-28T12:46:46.658Z,5.40
2023-03-28T12:47:46.588Z,4.10
2023-03-28T12:48:46.442Z,3.70
2023-03-28T12:49:46.481Z,5.10
2023-03-28T12:50:46.433Z,4.90
2023-03-28T12:51:46.540Z,2.70
2023-03-28T12:52:46.611Z,3.50
2023-03-28T12:53:46.404Z,5.80
2023-03-28T12:54:46.500Z,4.40
2023-03-28T12:55:46.611Z,4.60
2023-03-28T12:56:46.401Z,4.10
2023-03-28T12:57:46.548Z,4.00
2023-03-28T12:58:46.341Z,2.90
2023-03-28T12:59:46.346Z,4.00
2023-03-28T13:00:46.315Z,5.00
2023-03-28T13:01:46.387Z,3.30
2023-03-28T13:02:46.450Z,4.90
2023-03-28T13:03:46.455Z,4.20